Tokoname, Japan
Current Conditions -  °F | °C
As of 7:00 PM on Sunday 21 Dec 2014 (Local Time) from RJGG Reporting Station
Broken Clouds Broken Clouds  
Wind Chill: 39°   Ceiling: Unl
Heat Index: 46°   Visibility: 6mi
Dew Point: 32°   Wind: 21mph
Humidity: 57%   Direction: 270°W
Pressure: 29.97"   Gusts: NA
Location:  34.88°N, 136.85°E
Report Text: RJGG 211000Z 27018KT 9999 FEW030 BKN/// 08/00 Q1015 NOSIG
Loading
Personal Weather Stations






























Interactive Weather Map New forecast layout! Learn more

10-Day Weather Forecast

Advertisements
Track Severe Weather on mobile